createdAt,value
2022-09-28T00:11:35.249Z,55.2
2022-09-28T00:27:09.887Z,55.1
2022-09-28T00:42:44.376Z,55.1
2022-09-28T00:58:18.862Z,55
2022-09-28T01:13:53.349Z,55
2022-09-28T01:29:27.845Z,54.9
2022-09-28T01:45:02.405Z,54.9
2022-09-28T02:00:37.224Z,54.8
2022-09-28T02:16:12.083Z,54.7
2022-09-28T02:31:46.964Z,54.6
2022-09-28T02:47:21.682Z,54.6
2022-09-28T03:02:56.280Z,54.5
2022-09-28T03:18:30.774Z,54.5
2022-09-28T03:34:05.252Z,54.5
2022-09-28T03:49:39.741Z,54.4
2022-09-28T04:05:14.251Z,54.5
2022-09-28T04:20:48.905Z,54.4
2022-09-28T04:36:23.406Z,54.4
2022-09-28T04:51:57.936Z,54.3
2022-09-28T05:07:32.428Z,54.1
2022-09-28T05:23:06.926Z,53.7
2022-09-28T05:38:41.415Z,51.3
2022-09-28T05:54:16.250Z,51.2
2022-09-28T06:09:52.763Z,50.7
2022-09-28T06:25:27.277Z,50.7
2022-09-28T06:41:02.236Z,50.6
2022-09-28T06:56:36.934Z,50.6
2022-09-28T07:12:11.648Z,50.6
2022-09-28T07:27:46.151Z,50.4
2022-09-28T07:43:20.958Z,50.5
2022-09-28T07:58:55.463Z,50.8
2022-09-28T08:14:29.939Z,51
2022-09-28T08:30:04.420Z,50.8
2022-09-28T08:45:39.439Z,50.6
2022-09-28T09:01:14.274Z,50.5
2022-09-28T09:16:49.077Z,50.6
2022-09-28T09:32:23.731Z,50.6
2022-09-28T09:47:58.263Z,50.8
2022-09-28T10:03:32.908Z,50.6
2022-09-28T10:19:07.398Z,50.1
2022-09-28T10:34:42.070Z,50.5
2022-09-28T10:50:16.552Z,50.5
2022-09-28T11:05:51.163Z,50.4
2022-09-28T11:21:25.691Z,50.4
2022-09-28T11:37:02.955Z,50.1
2022-09-28T11:52:37.482Z,49.8
2022-09-28T12:08:12.073Z,49.1
2022-09-28T12:23:46.862Z,48.8
2022-09-28T12:39:59.757Z,48.7
2022-09-28T12:55:35.148Z,49.6
2022-09-28T13:11:09.685Z,49.1
2022-09-28T13:26:44.182Z,49.1
2022-09-28T13:42:18.676Z,49.1
2022-09-28T13:57:53.171Z,49.4
2022-09-28T14:13:30.928Z,49.5
2022-09-28T14:29:20.270Z,49.7
2022-09-28T14:44:55.134Z,50.1
2022-09-28T14:54:08.559Z,48.4
2022-09-28T15:09:43.096Z,49.7
2022-09-28T15:25:17.627Z,49.6
2022-09-28T15:40:52.558Z,50
2022-09-28T15:56:27.475Z,50.5
2022-09-28T16:12:16.773Z,50.6
2022-09-28T16:27:51.628Z,50.7
2022-09-28T16:43:26.355Z,50.2
2022-09-28T16:59:01.321Z,50.3
2022-09-28T17:14:36.002Z,49.7
2022-09-28T17:30:10.731Z,50.2
2022-09-28T17:45:45.377Z,50.6
2022-09-28T18:01:20.295Z,50.7
2022-09-28T18:17:39.345Z,51.1
2022-09-28T18:33:14.108Z,51.7
2022-09-28T18:48:49.105Z,51.4
2022-09-28T19:04:23.878Z,51.4
2022-09-28T19:19:58.749Z,51.5
2022-09-28T19:35:33.546Z,51.1
2022-09-28T19:51:08.468Z,51.2
2022-09-28T20:06:44.321Z,51
2022-09-28T20:22:33.945Z,51.1
2022-09-28T20:38:08.727Z,51.5
2022-09-28T20:53:43.446Z,51.7
2022-09-28T21:09:32.723Z,51.9
2022-09-28T21:25:07.279Z,52.1
2022-09-28T21:40:42.280Z,52.3
2022-09-28T21:56:16.957Z,52.5
2022-09-28T22:11:51.582Z,52.6
2022-09-28T22:27:26.109Z,53
2022-09-28T22:43:00.765Z,53.2
2022-09-28T22:58:35.326Z,53.3
2022-09-28T23:14:09.881Z,53.5
2022-09-28T23:29:44.529Z,53.5
2022-09-28T23:45:19.092Z,53.6
